sensor_id;sensor_type;location;lat;lon;timestamp;pressure;altitude;pressure_sealevel;temperature;humidity
76448;BME280;65284;51.040;13.722;2023-03-21T00:00:22;100015.25;;;9.24;84.98
76448;BME280;65284;51.040;13.722;2023-03-21T00:02:48;100019.19;;;9.20;85.14
76448;BME280;65284;51.040;13.722;2023-03-21T00:05:15;100019.25;;;9.28;84.30
76448;BME280;65284;51.040;13.722;2023-03-21T00:07:41;100016.91;;;9.25;84.56
76448;BME280;65284;51.040;13.722;2023-03-21T00:10:09;100021.91;;;9.28;84.26
76448;BME280;65284;51.040;13.722;2023-03-21T00:12:43;100013.88;;;9.20;84.58
76448;BME280;65284;51.040;13.722;2023-03-21T00:15:11;100023.22;;;9.24;84.28
76448;BME280;65284;51.040;13.722;2023-03-21T00:17:38;100023.34;;;9.22;84.12
76448;BME280;65284;51.040;13.722;2023-03-21T00:20:06;100022.84;;;9.19;84.52
76448;BME280;65284;51.040;13.722;2023-03-21T00:22:41;100020.03;;;9.20;84.00
76448;BME280;65284;51.040;13.722;2023-03-21T00:25:08;100025.34;;;9.20;84.26
76448;BME280;65284;51.040;13.722;2023-03-21T00:27:35;100034.19;;;9.29;83.93
76448;BME280;65284;51.040;13.722;2023-03-21T00:30:22;100034.19;;;9.29;84.94
76448;BME280;65284;51.040;13.722;2023-03-21T00:32:49;100045.69;;;9.20;85.50
76448;BME280;65284;51.040;13.722;2023-03-21T00:35:22;100036.25;;;9.17;85.51
76448;BME280;65284;51.040;13.722;2023-03-21T00:38:09;100040.38;;;9.20;86.28
76448;BME280;65284;51.040;13.722;2023-03-21T00:40:36;100033.91;;;9.14;86.04
76448;BME280;65284;51.040;13.722;2023-03-21T00:43:14;100039.19;;;9.14;86.76
76448;BME280;65284;51.040;13.722;2023-03-21T00:45:43;100032.69;;;9.08;87.08
76448;BME280;65284;51.040;13.722;2023-03-21T00:48:10;100024.34;;;9.03;87.22
76448;BME280;65284;51.040;13.722;2023-03-21T00:50:38;100030.94;;;8.99;87.70
76448;BME280;65284;51.040;13.722;2023-03-21T00:53:05;100023.88;;;8.90;87.84
76448;BME280;65284;51.040;13.722;2023-03-21T00:55:32;100022.81;;;8.83;88.35
76448;BME280;65284;51.040;13.722;2023-03-21T00:57:59;100018.94;;;8.77;88.43
76448;BME280;65284;51.040;13.722;2023-03-21T01:00:28;100022.50;;;8.86;88.00
76448;BME280;65284;51.040;13.722;2023-03-21T01:02:55;100023.69;;;8.74;87.97
76448;BME280;65284;51.040;13.722;2023-03-21T01:05:37;100026.88;;;8.77;87.25
76448;BME280;65284;51.040;13.722;2023-03-21T01:08:24;100029.53;;;8.77;87.50
76448;BME280;65284;51.040;13.722;2023-03-21T01:11:04;100034.41;;;8.82;87.33
76448;BME280;65284;51.040;13.722;2023-03-21T01:13:32;100032.25;;;8.68;87.72
76448;BME280;65284;51.040;13.722;2023-03-21T01:16:04;100029.06;;;8.64;87.78
76448;BME280;65284;51.040;13.722;2023-03-21T01:18:31;100022.38;;;8.60;87.09
76448;BME280;65284;51.040;13.722;2023-03-21T01:20:59;100028.22;;;8.63;87.35
76448;BME280;65284;51.040;13.722;2023-03-21T01:23:28;100039.34;;;8.67;87.20
76448;BME280;65284;51.040;13.722;2023-03-21T01:25:55;100026.25;;;8.65;87.28
76448;BME280;65284;51.040;13.722;2023-03-21T01:28:26;100030.47;;;8.58;87.24
76448;BME280;65284;51.040;13.722;2023-03-21T01:30:53;100031.44;;;8.57;87.58
76448;BME280;65284;51.040;13.722;2023-03-21T01:33:20;100034.66;;;8.61;87.63
76448;BME280;65284;51.040;13.722;2023-03-21T01:35:47;100035.78;;;8.58;87.93
76448;BME280;65284;51.040;13.722;2023-03-21T01:38:28;100029.38;;;8.51;88.25
76448;BME280;65284;51.040;13.722;2023-03-21T01:40:55;100034.78;;;8.59;88.34
76448;BME280;65284;51.040;13.722;2023-03-21T01:43:27;100032.88;;;8.52;88.64
76448;BME280;65284;51.040;13.722;2023-03-21T01:48:39;100029.38;;;8.51;88.37
76448;BME280;65284;51.040;13.722;2023-03-21T01:51:08;100026.44;;;8.54;88.33
76448;BME280;65284;51.040;13.722;2023-03-21T01:53:37;100029.38;;;8.51;88.56
76448;BME280;65284;51.040;13.722;2023-03-21T01:56:22;100028.03;;;8.47;88.88
76448;BME280;65284;51.040;13.722;2023-03-21T01:58:51;100030.50;;;8.49;88.96
76448;BME280;65284;51.040;13.722;2023-03-21T02:01:21;100031.97;;;8.43;88.98
76448;BME280;65284;51.040;13.722;2023-03-21T02:03:48;100018.03;;;8.41;89.66
76448;BME280;65284;51.040;13.722;2023-03-21T02:06:28;100018.72;;;8.43;89.87
76448;BME280;65284;51.040;13.722;2023-03-21T02:09:03;100014.09;;;8.45;89.81
76448;BME280;65284;51.040;13.722;2023-03-21T02:11:30;100006.56;;;8.50;89.43
76448;BME280;65284;51.040;13.722;2023-03-21T02:13:57;100005.19;;;8.46;89.46
76448;BME280;65284;51.040;13.722;2023-03-21T02:16:59;100005.56;;;8.51;88.91
76448;BME280;65284;51.040;13.722;2023-03-21T02:23:06;100005.97;;;8.56;87.99
76448;BME280;65284;51.040;13.722;2023-03-21T02:25:53;100002.31;;;8.57;86.05
76448;BME280;65284;51.040;13.722;2023-03-21T02:28:46;100000.56;;;8.48;84.61
76448;BME280;65284;51.040;13.722;2023-03-21T02:31:32;99999.91;;;8.46;81.93
76448;BME280;65284;51.040;13.722;2023-03-21T02:42:28;100003.13;;;8.40;78.21
76448;BME280;65284;51.040;13.722;2023-03-21T02:45:08;100011.31;;;8.37;79.69
76448;BME280;65284;51.040;13.722;2023-03-21T02:47:49;100012.34;;;8.26;80.41
76448;BME280;65284;51.040;13.722;2023-03-21T02:50:23;100008.88;;;8.26;81.07
76448;BME280;65284;51.040;13.722;2023-03-21T02:52:52;100011.13;;;8.20;79.93
76448;BME280;65284;51.040;13.722;2023-03-21T02:55:26;100020.06;;;8.10;80.47
76448;BME280;65284;51.040;13.722;2023-03-21T02:57:55;100011.41;;;8.17;80.40
76448;BME280;65284;51.040;13.722;2023-03-21T03:00:29;100017.41;;;8.19;79.83
76448;BME280;65284;51.040;13.722;2023-03-21T03:02:57;100012.03;;;8.02;81.22
76448;BME280;65284;51.040;13.722;2023-03-21T03:05:41;100016.09;;;7.96;81.87
76448;BME280;65284;51.040;13.722;2023-03-21T03:08:26;100014.56;;;7.93;81.55
76448;BME280;65284;51.040;13.722;2023-03-21T03:11:28;100019.75;;;7.75;81.95
76448;BME280;65284;51.040;13.722;2023-03-21T03:20:28;100004.34;;;7.61;82.30
76448;BME280;65284;51.040;13.722;2023-03-21T03:23:04;100000.44;;;7.75;82.56
76448;BME280;65284;51.040;13.722;2023-03-21T03:25:48;100001.81;;;7.69;82.03
76448;BME280;65284;51.040;13.722;2023-03-21T03:28:19;100002.94;;;7.57;82.85
76448;BME280;65284;51.040;13.722;2023-03-21T03:30:48;99995.28;;;7.54;83.03
76448;BME280;65284;51.040;13.722;2023-03-21T03:33:35;99998.34;;;7.59;82.80
76448;BME280;65284;51.040;13.722;2023-03-21T03:36:05;99999.34;;;7.58;82.99
76448;BME280;65284;51.040;13.722;2023-03-21T03:38:36;100001.69;;;7.61;82.94
76448;BME280;65284;51.040;13.722;2023-03-21T03:41:09;100005.19;;;7.52;83.26
76448;BME280;65284;51.040;13.722;2023-03-21T03:43:42;100009.66;;;7.51;83.78
76448;BME280;65284;51.040;13.722;2023-03-21T03:46:18;100013.50;;;7.57;83.58
76448;BME280;65284;51.040;13.722;2023-03-21T03:48:52;100008.22;;;7.57;82.95
76448;BME280;65284;51.040;13.722;2023-03-21T03:51:28;100014.06;;;7.51;83.53
76448;BME280;65284;51.040;13.722;2023-03-21T03:54:01;100005.47;;;7.49;83.75
76448;BME280;65284;51.040;13.722;2023-03-21T03:56:30;100001.84;;;7.50;83.42
76448;BME280;65284;51.040;13.722;2023-03-21T03:58:56;100003.78;;;7.48;83.60
76448;BME280;65284;51.040;13.722;2023-03-21T04:01:23;100008.50;;;7.54;83.43
76448;BME280;65284;51.040;13.722;2023-03-21T04:03:49;100003.94;;;7.46;83.39
76448;BME280;65284;51.040;13.722;2023-03-21T04:06:32;100009.34;;;7.45;83.65
76448;BME280;65284;51.040;13.722;2023-03-21T04:08:58;100010.34;;;7.44;83.86
76448;BME280;65284;51.040;13.722;2023-03-21T04:11:30;100004.06;;;7.45;83.48
76448;BME280;65284;51.040;13.722;2023-03-21T04:13:57;100007.00;;;7.42;83.69
76448;BME280;65284;51.040;13.722;2023-03-21T04:16:23;100012.69;;;7.47;83.78
76448;BME280;65284;51.040;13.722;2023-03-21T04:18:50;100012.97;;;7.44;84.18
76448;BME280;65284;51.040;13.722;2023-03-21T04:21:17;100019.25;;;7.43;84.13
76448;BME280;65284;51.040;13.722;2023-03-21T04:23:44;100018.25;;;7.44;83.88
76448;BME280;65284;51.040;13.722;2023-03-21T04:26:10;100016.72;;;7.51;84.50
76448;BME280;65284;51.040;13.722;2023-03-21T04:28:37;100015.63;;;7.44;84.23
76448;BME280;65284;51.040;13.722;2023-03-21T04:31:06;100011.31;;;7.43;84.15
76448;BME280;65284;51.040;13.722;2023-03-21T04:33:50;100005.06;;;7.44;84.90
76448;BME280;65284;51.040;13.722;2023-03-21T04:36:16;100007.69;;;7.44;84.61
76448;BME280;65284;51.040;13.722;2023-03-21T04:38:52;100011.03;;;7.36;84.24
76448;BME280;65284;51.040;13.722;2023-03-21T04:41:19;100009.78;;;7.40;83.86
76448;BME280;65284;51.040;13.722;2023-03-21T04:43:46;100006.31;;;7.40;84.45
76448;BME280;65284;51.040;13.722;2023-03-21T04:46:12;100007.69;;;7.44;84.19
76448;BME280;65284;51.040;13.722;2023-03-21T04:48:39;100010.88;;;7.57;84.34
76448;BME280;65284;51.040;13.722;2023-03-21T04:51:05;100007.97;;;7.41;84.27
76448;BME280;65284;51.040;13.722;2023-03-21T04:53:32;100010.88;;;7.47;84.21
76448;BME280;65284;51.040;13.722;2023-03-21T04:55:58;100011.59;;;7.49;84.68
76448;BME280;65284;51.040;13.722;2023-03-21T04:58:25;100012.97;;;7.44;84.82
76448;BME280;65284;51.040;13.722;2023-03-21T05:00:52;100010.22;;;7.45;84.61
76448;BME280;65284;51.040;13.722;2023-03-21T05:03:18;100007.41;;;7.47;83.77
76448;BME280;65284;51.040;13.722;2023-03-21T05:05:47;100014.06;;;7.51;84.07
76448;BME280;65284;51.040;13.722;2023-03-21T05:08:14;100010.19;;;7.55;83.78
76448;BME280;65284;51.040;13.722;2023-03-21T05:10:41;100008.50;;;7.54;83.89
76448;BME280;65284;51.040;13.722;2023-03-21T05:13:08;100001.56;;;7.53;82.19
76448;BME280;65284;51.040;13.722;2023-03-21T05:15:34;100015.19;;;7.58;81.63
76448;BME280;65284;51.040;13.722;2023-03-21T05:18:01;100004.63;;;7.58;81.33
76448;BME280;65284;51.040;13.722;2023-03-21T05:20:40;100014.34;;;7.67;81.22
76448;BME280;65284;51.040;13.722;2023-03-21T05:23:10;100009.06;;;7.67;80.80
76448;BME280;65284;51.040;13.722;2023-03-21T05:25:38;100017.56;;;7.61;80.81
76448;BME280;65284;51.040;13.722;2023-03-21T05:28:06;100012.84;;;7.55;80.55
76448;BME280;65284;51.040;13.722;2023-03-21T05:30:32;100011.00;;;7.65;80.67
76448;BME280;65284;51.040;13.722;2023-03-21T05:32:59;100014.34;;;7.67;80.92
76448;BME280;65284;51.040;13.722;2023-03-21T05:35:25;100014.34;;;7.67;81.19
76448;BME280;65284;51.040;13.722;2023-03-21T05:37:52;100017.97;;;7.66;80.88
76448;BME280;65284;51.040;13.722;2023-03-21T05:40:18;100021.72;;;7.54;81.12
76448;BME280;65284;51.040;13.722;2023-03-21T05:42:46;100014.38;;;7.58;81.44
76448;BME280;65284;51.040;13.722;2023-03-21T05:45:14;100018.78;;;7.57;81.33
76448;BME280;65284;51.040;13.722;2023-03-21T05:47:40;100015.47;;;7.55;81.39
76448;BME280;65284;51.040;13.722;2023-03-21T05:50:07;100019.06;;;7.54;81.50
76448;BME280;65284;51.040;13.722;2023-03-21T05:52:34;100023.38;;;7.65;81.05
76448;BME280;65284;51.040;13.722;2023-03-21T05:55:01;100015.91;;;7.60;81.59
76448;BME280;65284;51.040;13.722;2023-03-21T05:57:28;100016.44;;;7.54;81.64
76448;BME280;65284;51.040;13.722;2023-03-21T05:59:54;100012.69;;;7.57;81.80
76448;BME280;65284;51.040;13.722;2023-03-21T06:02:21;100009.09;;;7.58;81.90
76448;BME280;65284;51.040;13.722;2023-03-21T06:04:47;100019.91;;;7.64;81.30
76448;BME280;65284;51.040;13.722;2023-03-21T06:07:14;100022.69;;;7.63;81.47
76448;BME280;65284;51.040;13.722;2023-03-21T06:09:40;100024.22;;;7.65;81.40
76448;BME280;65284;51.040;13.722;2023-03-21T06:12:07;100018.50;;;7.80;81.02
76448;BME280;65284;51.040;13.722;2023-03-21T06:14:33;100018.78;;;7.77;81.02
76448;BME280;65284;51.040;13.722;2023-03-21T06:16:59;100028.19;;;7.89;80.98
76448;BME280;65284;51.040;13.722;2023-03-21T06:19:26;100021.00;;;7.81;81.01
76448;BME280;65284;51.040;13.722;2023-03-21T06:21:52;100024.59;;;7.90;80.81
76448;BME280;65284;51.040;13.722;2023-03-21T06:24:20;100021.25;;;7.88;80.60
76448;BME280;65284;51.040;13.722;2023-03-21T06:26:46;100023.75;;;7.89;80.63
76448;BME280;65284;51.040;13.722;2023-03-21T06:29:13;100024.03;;;7.96;80.47
76448;BME280;65284;51.040;13.722;2023-03-21T06:31:40;100028.16;;;7.98;81.04
76448;BME280;65284;51.040;13.722;2023-03-21T06:34:06;100029.59;;;7.93;80.46
76448;BME280;65284;51.040;13.722;2023-03-21T06:36:33;100026.84;;;7.85;81.41
76448;BME280;65284;51.040;13.722;2023-03-21T06:38:59;100030.44;;;7.84;81.08
76448;BME280;65284;51.040;13.722;2023-03-21T06:41:25;100026.84;;;7.85;81.39
76448;BME280;65284;51.040;13.722;2023-03-21T06:43:52;100035.72;;;7.84;81.70
76448;BME280;65284;51.040;13.722;2023-03-21T06:46:18;100039.31;;;7.92;81.28
76448;BME280;65284;51.040;13.722;2023-03-21T06:48:44;100041.84;;;7.94;81.06
76448;BME280;65284;51.040;13.722;2023-03-21T06:51:12;100039.84;;;8.06;80.81
76448;BME280;65284;51.040;13.722;2023-03-21T06:53:39;100044.47;;;7.94;80.61
76448;BME280;65284;51.040;13.722;2023-03-21T06:56:08;100046.13;;;7.95;81.08
76448;BME280;65284;51.040;13.722;2023-03-21T06:58:34;100040.44;;;8.00;80.13
76448;BME280;65284;51.040;13.722;2023-03-21T07:01:02;100045.56;;;8.11;79.85
76448;BME280;65284;51.040;13.722;2023-03-21T07:03:29;100042.34;;;8.07;79.90
76448;BME280;65284;51.040;13.722;2023-03-21T07:05:56;100050.41;;;8.15;79.26
76448;BME280;65284;51.040;13.722;2023-03-21T07:08:23;100041.22;;;8.19;79.38
76448;BME280;65284;51.040;13.722;2023-03-21T07:10:49;100047.88;;;8.24;79.39
76448;BME280;65284;51.040;13.722;2023-03-21T07:13:20;100048.16;;;8.20;79.71
76448;BME280;65284;51.040;13.722;2023-03-21T07:15:46;100043.94;;;8.28;79.46
76448;BME280;65284;51.040;13.722;2023-03-21T07:18:13;100041.16;;;8.29;79.78
76448;BME280;65284;51.040;13.722;2023-03-21T07:20:39;100038.06;;;8.34;79.44
76448;BME280;65284;51.040;13.722;2023-03-21T07:23:05;100041.41;;;8.36;79.46
76448;BME280;65284;51.040;13.722;2023-03-21T07:25:32;100039.75;;;8.45;78.81
76448;BME280;65284;51.040;13.722;2023-03-21T07:27:59;100047.53;;;8.46;78.84
76448;BME280;65284;51.040;13.722;2023-03-21T07:30:26;100050.03;;;8.48;79.07
76448;BME280;65284;51.040;13.722;2023-03-21T07:32:52;100050.06;;;8.38;79.53
76448;BME280;65284;51.040;13.722;2023-03-21T07:35:19;100044.34;;;8.33;80.32
76448;BME280;65284;51.040;13.722;2023-03-21T07:37:46;100047.00;;;8.33;80.27
76448;BME280;65284;51.040;13.722;2023-03-21T07:40:12;100052.00;;;8.36;80.14
76448;BME280;65284;51.040;13.722;2023-03-21T07:42:39;100046.97;;;8.52;79.68
76448;BME280;65284;51.040;13.722;2023-03-21T07:45:08;100051.56;;;8.50;79.20
76448;BME280;65284;51.040;13.722;2023-03-21T07:47:34;100055.63;;;8.45;78.79
76448;BME280;65284;51.040;13.722;2023-03-21T07:50:02;100051.69;;;8.49;79.17
76448;BME280;65284;51.040;13.722;2023-03-21T07:52:30;100058.66;;;8.50;79.25
76448;BME280;65284;51.040;13.722;2023-03-21T07:54:56;100054.44;;;8.57;78.85
76448;BME280;65284;51.040;13.722;2023-03-21T07:57:23;100047.78;;;8.53;79.07
76448;BME280;65284;51.040;13.722;2023-03-21T07:59:49;100046.22;;;8.60;78.70
76448;BME280;65284;51.040;13.722;2023-03-21T08:02:16;100042.13;;;8.65;78.52
76448;BME280;65284;51.040;13.722;2023-03-21T08:04:43;100047.13;;;8.69;78.38
76448;BME280;65284;51.040;13.722;2023-03-21T08:07:10;100048.91;;;8.78;77.91
76448;BME280;65284;51.040;13.722;2023-03-21T08:09:37;100040.34;;;8.84;77.22
76448;BME280;65284;51.040;13.722;2023-03-21T08:12:05;100037.34;;;8.79;77.33
76448;BME280;65284;51.040;13.722;2023-03-21T08:14:33;100036.75;;;8.85;77.87
76448;BME280;65284;51.040;13.722;2023-03-21T08:17:03;100045.44;;;8.95;77.38
76448;BME280;65284;51.040;13.722;2023-03-21T08:19:30;100050.97;;;9.20;77.14
76448;BME280;65284;51.040;13.722;2023-03-21T08:21:56;100049.50;;;9.35;76.28
76448;BME280;65284;51.040;13.722;2023-03-21T08:24:26;100047.81;;;9.34;76.63
76448;BME280;65284;51.040;13.722;2023-03-21T08:26:53;100040.63;;;9.44;75.57
76448;BME280;65284;51.040;13.722;2023-03-21T08:29:19;100046.06;;;9.43;76.31
76448;BME280;65284;51.040;13.722;2023-03-21T08:31:46;100045.84;;;9.36;76.31
76448;BME280;65284;51.040;13.722;2023-03-21T08:34:13;100049.19;;;9.38;75.94
76448;BME280;65284;51.040;13.722;2023-03-21T08:36:39;100045.31;;;9.50;75.87
76448;BME280;65284;51.040;13.722;2023-03-21T08:39:06;100043.59;;;9.41;75.37
76448;BME280;65284;51.040;13.722;2023-03-21T08:41:36;100046.34;;;9.57;75.39
76448;BME280;65284;51.040;13.722;2023-03-21T08:44:04;100045.00;;;9.53;75.21
76448;BME280;65284;51.040;13.722;2023-03-21T08:46:31;100043.34;;;9.52;75.77
76448;BME280;65284;51.040;13.722;2023-03-21T08:48:58;100040.97;;;9.49;75.81
76448;BME280;65284;51.040;13.722;2023-03-21T08:51:24;100042.03;;;9.56;75.55
76448;BME280;65284;51.040;13.722;2023-03-21T08:53:51;100032.06;;;9.50;74.99
76448;BME280;65284;51.040;13.722;2023-03-21T08:56:17;100037.75;;;9.55;75.48
76448;BME280;65284;51.040;13.722;2023-03-21T08:58:44;100036.81;;;9.65;75.44
76448;BME280;65284;51.040;13.722;2023-03-21T09:01:10;100032.69;;;9.88;74.47
76448;BME280;65284;51.040;13.722;2023-03-21T09:03:41;100032.81;;;9.87;74.27
76448;BME280;65284;51.040;13.722;2023-03-21T09:06:09;100034.25;;;9.81;74.81
76448;BME280;65284;51.040;13.722;2023-03-21T09:08:37;100027.31;;;9.80;74.65
76448;BME280;65284;51.040;13.722;2023-03-21T09:11:04;100041.16;;;9.92;73.89
76448;BME280;65284;51.040;13.722;2023-03-21T09:13:31;100039.69;;;9.97;73.99
76448;BME280;65284;51.040;13.722;2023-03-21T09:15:57;100032.69;;;9.96;74.12
76448;BME280;65284;51.040;13.722;2023-03-21T09:18:27;100036.72;;;10.00;74.00
76448;BME280;65284;51.040;13.722;2023-03-21T09:21:14;100033.13;;;10.10;73.66
76448;BME280;65284;51.040;13.722;2023-03-21T09:23:42;100027.81;;;10.10;73.47
76448;BME280;65284;51.040;13.722;2023-03-21T09:26:10;100021.56;;;10.19;73.72
76448;BME280;65284;51.040;13.722;2023-03-21T09:28:38;100024.53;;;10.42;73.11
76448;BME280;65284;51.040;13.722;2023-03-21T09:31:06;100024.25;;;10.53;72.59
76448;BME280;65284;51.040;13.722;2023-03-21T09:33:37;100022.41;;;10.54;72.40
76448;BME280;65284;51.040;13.722;2023-03-21T09:36:06;100024.78;;;10.65;72.50
76448;BME280;65284;51.040;13.722;2023-03-21T09:38:36;100020.13;;;10.67;72.06
76448;BME280;65284;51.040;13.722;2023-03-21T09:41:10;100022.97;;;10.65;71.95
76448;BME280;65284;51.040;13.722;2023-03-21T09:44:10;100022.13;;;10.65;72.58
76448;BME280;65284;51.040;13.722;2023-03-21T09:49:23;100029.09;;;10.66;72.14
76448;BME280;65284;51.040;13.722;2023-03-21T09:52:01;100019.44;;;10.57;72.41
76448;BME280;65284;51.040;13.722;2023-03-21T09:54:34;100022.41;;;10.54;72.50
76448;BME280;65284;51.040;13.722;2023-03-21T09:57:15;100020.81;;;10.69;71.71
76448;BME280;65284;51.040;13.722;2023-03-21T09:59:47;100009.03;;;10.72;72.14
76448;BME280;65284;51.040;13.722;2023-03-21T10:02:43;100009.88;;;10.80;72.26
76448;BME280;65284;51.040;13.722;2023-03-21T10:05:18;100004.91;;;10.93;71.44
76448;BME280;65284;51.040;13.722;2023-03-21T10:07:52;100002.28;;;11.02;71.09
76448;BME280;65284;51.040;13.722;2023-03-21T10:10:46;100001.97;;;11.13;71.00
76448;BME280;65284;51.040;13.722;2023-03-21T10:13:37;99991.84;;;11.16;70.58
76448;BME280;65284;51.040;13.722;2023-03-21T10:16:15;99991.00;;;11.08;70.62
76448;BME280;65284;51.040;13.722;2023-03-21T10:18:43;99989.00;;;11.26;70.61
76448;BME280;65284;51.040;13.722;2023-03-21T10:21:15;99987.84;;;11.29;70.57
76448;BME280;65284;51.040;13.722;2023-03-21T10:24:02;99985.38;;;11.27;70.39
76448;BME280;65284;51.040;13.722;2023-03-21T10:26:29;99983.34;;;11.29;70.94
76448;BME280;65284;51.040;13.722;2023-03-21T10:28:58;99990.00;;;11.50;70.43
76448;BME280;65284;51.040;13.722;2023-03-21T10:31:27;99985.69;;;11.57;70.17
76448;BME280;65284;51.040;13.722;2023-03-21T10:33:58;99975.53;;;11.52;70.15
76448;BME280;65284;51.040;13.722;2023-03-21T10:36:30;99979.38;;;11.50;70.06
76448;BME280;65284;51.040;13.722;2023-03-21T10:39:04;99968.72;;;11.50;69.51
76448;BME280;65284;51.040;13.722;2023-03-21T10:41:32;99977.72;;;11.57;69.16
76448;BME280;65284;51.040;13.722;2023-03-21T10:44:11;99973.03;;;11.59;69.38
76448;BME280;65284;51.040;13.722;2023-03-21T10:47:08;99974.03;;;11.66;69.69
76448;BME280;65284;51.040;13.722;2023-03-21T10:49:36;99977.34;;;11.76;68.41
76448;BME280;65284;51.040;13.722;2023-03-21T10:52:23;99974.19;;;11.73;68.93
76448;BME280;65284;51.040;13.722;2023-03-21T10:55:04;99969.00;;;11.79;69.11
76448;BME280;65284;51.040;13.722;2023-03-21T10:57:32;99972.34;;;11.81;69.05
76448;BME280;65284;51.040;13.722;2023-03-21T11:00:00;99969.00;;;11.79;68.43
76448;BME280;65284;51.040;13.722;2023-03-21T11:02:36;99962.53;;;11.90;68.45
76448;BME280;65284;51.040;13.722;2023-03-21T11:05:05;99956.50;;;12.04;67.84
76448;BME280;65284;51.040;13.722;2023-03-21T11:07:34;99959.63;;;12.16;67.73
76448;BME280;65284;51.040;13.722;2023-03-21T11:10:25;99957.47;;;12.12;67.78
76448;BME280;65284;51.040;13.722;2023-03-21T11:12:56;99961.38;;;12.32;67.04
76448;BME280;65284;51.040;13.722;2023-03-21T11:15:31;99958.03;;;12.38;67.11
76448;BME280;65284;51.040;13.722;2023-03-21T11:18:01;99959.50;;;12.49;66.93
76448;BME280;65284;51.040;13.722;2023-03-21T11:20:43;99951.56;;;12.64;65.83
76448;BME280;65284;51.040;13.722;2023-03-21T11:23:13;99953.47;;;12.55;65.97
76448;BME280;65284;51.040;13.722;2023-03-21T11:25:40;99953.47;;;12.55;65.90
76448;BME280;65284;51.040;13.722;2023-03-21T11:28:19;99949.00;;;12.79;65.29
76448;BME280;65284;51.040;13.722;2023-03-21T11:30:53;99940.22;;;12.70;66.38
76448;BME280;65284;51.040;13.722;2023-03-21T11:33:22;99950.41;;;12.66;65.67
76448;BME280;65284;51.040;13.722;2023-03-21T11:38:36;99931.47;;;12.84;66.23
76448;BME280;65284;51.040;13.722;2023-03-21T11:41:05;99933.94;;;12.86;66.23
76448;BME280;65284;51.040;13.722;2023-03-21T11:43:37;99930.50;;;13.00;65.99
76448;BME280;65284;51.040;13.722;2023-03-21T11:46:12;99931.56;;;13.37;64.49
76448;BME280;65284;51.040;13.722;2023-03-21T11:48:46;99918.13;;;13.22;63.99
76448;BME280;65284;51.040;13.722;2023-03-21T11:51:24;99915.00;;;13.18;64.89
76448;BME280;65284;51.040;13.722;2023-03-21T11:54:15;99914.66;;;13.21;64.61
76448;BME280;65284;51.040;13.722;2023-03-21T11:57:11;99907.47;;;13.22;64.83
76448;BME280;65284;51.040;13.722;2023-03-21T12:02:31;99906.97;;;13.27;65.66
76448;BME280;65284;51.040;13.722;2023-03-21T12:05:17;99896.59;;;13.32;64.51
76448;BME280;65284;51.040;13.722;2023-03-21T12:08:07;99896.97;;;13.29;65.25
76448;BME280;65284;51.040;13.722;2023-03-21T12:19:29;99885.19;;;13.38;64.86
76448;BME280;65284;51.040;13.722;2023-03-21T12:22:19;99877.28;;;13.30;64.83
76448;BME280;65284;51.040;13.722;2023-03-21T12:35:14;99863.41;;;13.34;64.85
76448;BME280;65284;51.040;13.722;2023-03-21T12:40:42;99861.28;;;13.07;66.07
76448;BME280;65284;51.040;13.722;2023-03-21T12:43:27;99860.41;;;13.14;65.38
76448;BME280;65284;51.040;13.722;2023-03-21T12:46:02;99853.94;;;13.32;65.09
76448;BME280;65284;51.040;13.722;2023-03-21T12:48:37;99845.63;;;13.27;65.01
76448;BME280;65284;51.040;13.722;2023-03-21T12:51:12;99847.03;;;13.37;65.24
76448;BME280;65284;51.040;13.722;2023-03-21T12:53:49;99843.06;;;13.48;65.06
76448;BME280;65284;51.040;13.722;2023-03-21T12:56:30;99840.69;;;13.53;65.15
76448;BME280;65284;51.040;13.722;2023-03-21T12:59:05;99838.75;;;13.77;64.82
76448;BME280;65284;51.040;13.722;2023-03-21T13:01:36;99829.09;;;13.76;65.16
76448;BME280;65284;51.040;13.722;2023-03-21T13:04:20;99825.03;;;13.80;65.19
76448;BME280;65284;51.040;13.722;2023-03-21T13:06:54;99831.56;;;13.77;64.94
76448;BME280;65284;51.040;13.722;2023-03-21T13:09:33;99823.78;;;13.97;64.79
76448;BME280;65284;51.040;13.722;2023-03-21T13:24:17;99799.59;;;14.20;63.29
76448;BME280;65284;51.040;13.722;2023-03-21T13:26:47;99801.97;;;14.30;63.75
76448;BME280;65284;51.040;13.722;2023-03-21T13:29:24;99798.53;;;14.36;63.39
76448;BME280;65284;51.040;13.722;2023-03-21T13:31:53;99794.38;;;14.33;62.53
76448;BME280;65284;51.040;13.722;2023-03-21T13:34:23;99789.09;;;14.40;62.70
76448;BME280;65284;51.040;13.722;2023-03-21T13:36:51;99787.47;;;14.39;62.95
76448;BME280;65284;51.040;13.722;2023-03-21T13:39:23;99782.16;;;14.46;62.95
76448;BME280;65284;51.040;13.722;2023-03-21T13:41:51;99777.66;;;14.46;62.61
76448;BME280;65284;51.040;13.722;2023-03-21T13:44:30;99784.09;;;14.52;62.53
76448;BME280;65284;51.040;13.722;2023-03-21T13:47:03;99775.09;;;14.53;62.71
76448;BME280;65284;51.040;13.722;2023-03-21T13:49:35;99779.31;;;14.47;62.60
76448;BME280;65284;51.040;13.722;2023-03-21T13:52:26;99771.47;;;14.46;61.69
76448;BME280;65284;51.040;13.722;2023-03-21T13:54:54;99772.31;;;14.46;62.46
76448;BME280;65284;51.040;13.722;2023-03-21T14:02:52;99774.69;;;14.56;61.85
76448;BME280;65284;51.040;13.722;2023-03-21T14:05:22;99772.34;;;14.68;61.86
76448;BME280;65284;51.040;13.722;2023-03-21T14:07:54;99768.19;;;14.65;62.01
76448;BME280;65284;51.040;13.722;2023-03-21T14:10:39;99759.75;;;14.62;61.84
76448;BME280;65284;51.040;13.722;2023-03-21T14:13:08;99755.25;;;14.69;61.78
76448;BME280;65284;51.040;13.722;2023-03-21T14:15:39;99753.63;;;14.68;61.90
76448;BME280;65284;51.040;13.722;2023-03-21T14:18:22;99747.94;;;14.77;62.02
76448;BME280;65284;51.040;13.722;2023-03-21T14:21:00;99744.28;;;14.85;61.55